createdAt,value
2022-10-01T00:00:08.915Z,100374.41
2022-10-01T00:03:02.641Z,100378.01
2022-10-01T00:05:34.735Z,100359.92
2022-10-01T00:08:06.667Z,100377.59
2022-10-01T00:10:41.993Z,100375.09
2022-10-01T00:13:14.003Z,100378.38
2022-10-01T00:15:46.553Z,100375.77
2022-10-01T00:18:18.847Z,100377.37
2022-10-01T00:20:50.867Z,100372.66
2022-10-01T00:23:23.301Z,100369.99
2022-10-01T00:25:55.196Z,100370.08
2022-10-01T00:28:27.631Z,100374.05
2022-10-01T00:30:59.990Z,100373.57
2022-10-01T00:33:32.970Z,100368.47
2022-10-01T00:36:08.227Z,100352.08
2022-10-01T00:38:41.686Z,100365.63
2022-10-01T00:41:14.029Z,100363.66
2022-10-01T00:43:49.468Z,100364.48
2022-10-01T00:46:26.277Z,100363.64
2022-10-01T00:49:03.409Z,100363.80
2022-10-01T00:51:39.808Z,100363.27
2022-10-01T00:54:16.542Z,100370.03
2022-10-01T00:56:51.857Z,100368.56
2022-10-01T00:59:24.364Z,100369.77
2022-10-01T01:01:56.863Z,100368.36
2022-10-01T01:04:29.038Z,100366.16
2022-10-01T01:07:03.956Z,100364.89
2022-10-01T01:09:38.552Z,100366.39
2022-10-01T01:12:20.190Z,100366.84
2022-10-01T01:14:59.437Z,100365.95
2022-10-01T01:17:39.694Z,100349.19
2022-10-01T01:20:28.873Z,100359.98
2022-10-01T01:23:14.132Z,100359.30
2022-10-01T01:25:50.285Z,100356.55
2022-10-01T01:28:31.836Z,100354.34
2022-10-01T01:31:08.756Z,100350.46
2022-10-01T01:33:45.050Z,100347.98
2022-10-01T01:36:21.864Z,100344.61
2022-10-01T01:38:57.144Z,100343.12
2022-10-01T01:41:35.413Z,100343.20
2022-10-01T01:44:13.741Z,100336.16
2022-10-01T01:46:49.567Z,100335.77
2022-10-01T01:49:22.507Z,100333.03
2022-10-01T01:52:01.421Z,100334.02
2022-10-01T01:54:35.822Z,100335.28
2022-10-01T01:57:09.587Z,100336.40
2022-10-01T01:59:42.529Z,100333.30
2022-10-01T02:02:18.696Z,100328.95
2022-10-01T02:04:56.509Z,100325.67
2022-10-01T02:07:48.875Z,100317.27
2022-10-01T02:10:35.214Z,100320.47
2022-10-01T02:13:24.265Z,100315.95
2022-10-01T02:16:06.105Z,100316.02
2022-10-01T02:18:48.347Z,100314.34
2022-10-01T02:21:27.475Z,100317.37
2022-10-01T02:24:03.966Z,100307.79
2022-10-01T02:26:40.515Z,100307.44
2022-10-01T02:29:17.272Z,100305.04
2022-10-01T02:31:55.736Z,100303.55
2022-10-01T02:34:32.300Z,100294.33
2022-10-01T02:37:08.446Z,100288.23
2022-10-01T02:39:42.148Z,100288.24
2022-10-01T02:42:16.839Z,100287.70
2022-10-01T02:44:48.186Z,100268.85
2022-10-01T02:47:24.561Z,100279.81
2022-10-01T02:49:57.032Z,100284.15
2022-10-01T02:52:36.141Z,100287.02
2022-10-01T02:55:12.654Z,100274.00
2022-10-01T02:57:45.008Z,100280.00
2022-10-01T03:00:21.503Z,100276.39
2022-10-01T03:02:53.744Z,100274.55
2022-10-01T03:05:26.441Z,100246.37
2022-10-01T03:07:58.393Z,100274.55
2022-10-01T03:10:30.903Z,100271.83
2022-10-01T03:13:02.765Z,100270.63
2022-10-01T03:15:34.889Z,100270.48
2022-10-01T03:18:06.882Z,100264.95
2022-10-01T03:20:39.292Z,100269.67
2022-10-01T03:23:11.522Z,100264.92
2022-10-01T03:25:43.815Z,100263.77
2022-10-01T03:28:16.700Z,100262.77
2022-10-01T03:30:48.690Z,100259.20
2022-10-01T03:33:20.801Z,100254.55
2022-10-01T03:35:53.609Z,100253.80
2022-10-01T03:38:25.467Z,100253.48
2022-10-01T03:40:57.631Z,100253.95
2022-10-01T03:43:30.537Z,100251.05
2022-10-01T03:46:03.097Z,100249.68
2022-10-01T03:48:35.098Z,100234.38
2022-10-01T03:51:07.683Z,100251.10
2022-10-01T03:53:39.933Z,100251.19
2022-10-01T03:56:12.551Z,100247.80
2022-10-01T03:58:44.589Z,100234.34
2022-10-01T04:01:17.060Z,100247.80
2022-10-01T04:03:49.281Z,100242.71
2022-10-01T04:06:21.867Z,100241.35
2022-10-01T04:08:54.106Z,100238.58
2022-10-01T04:11:26.059Z,100238.11
2022-10-01T04:13:58.671Z,100236.33
2022-10-01T04:16:31.828Z,100238.47
2022-10-01T04:19:04.238Z,100238.70
2022-10-01T04:21:37.150Z,100239.33
2022-10-01T04:24:09.656Z,100237.93
2022-10-01T04:26:42.271Z,100234.50
2022-10-01T04:29:14.446Z,100236.48
2022-10-01T04:31:47.123Z,100226.09
2022-10-01T04:34:19.480Z,100247.54
2022-10-01T04:36:52.186Z,100251.27
2022-10-01T04:39:25.101Z,100257.93
2022-10-01T04:41:57.660Z,100259.23
2022-10-01T04:44:31.388Z,100253.30
2022-10-01T04:47:03.731Z,100252.79
2022-10-01T04:49:36.192Z,100250.45
2022-10-01T04:52:09.245Z,100256.45
2022-10-01T04:54:41.924Z,100261.24
2022-10-01T04:57:14.313Z,100248.05
2022-10-01T04:59:46.688Z,100261.35
2022-10-01T05:02:19.552Z,100258.56
2022-10-01T05:04:51.849Z,100261.89
2022-10-01T05:07:23.991Z,100259.13
2022-10-01T05:09:55.932Z,100260.91
2022-10-01T05:12:28.551Z,100259.48
2022-10-01T05:15:02.222Z,100256.40
2022-10-01T05:17:34.641Z,100256.27
2022-10-01T05:20:11.509Z,100257.14
2022-10-01T05:22:44.144Z,100255.36
2022-10-01T05:25:17.570Z,100253.38
2022-10-01T05:27:49.831Z,100251.71
2022-10-01T05:30:24.403Z,100244.88
2022-10-01T05:33:02.298Z,100252.94
2022-10-01T05:35:35.065Z,100251.40
2022-10-01T05:38:07.600Z,100233.55
2022-10-01T05:40:39.661Z,100248.59
2022-10-01T05:43:12.255Z,100243.41
2022-10-01T05:45:44.279Z,100239.97
2022-10-01T05:48:17.548Z,100241.52
2022-10-01T05:50:50.029Z,100234.73
2022-10-01T05:53:22.584Z,100230.89
2022-10-01T05:55:54.824Z,100225.64
2022-10-01T05:58:27.511Z,100223.91
2022-10-01T06:00:59.774Z,100208.89
2022-10-01T06:03:32.196Z,100224.02
2022-10-01T06:06:05.487Z,100221.48
2022-10-01T06:08:38.902Z,100221.64
2022-10-01T06:11:12.217Z,100222.39
2022-10-01T06:13:46.890Z,100222.67
2022-10-01T06:16:17.524Z,100218.99
2022-10-01T06:18:49.862Z,100221.79
2022-10-01T06:21:21.968Z,100219.88
2022-10-01T06:23:55.771Z,100217.60
2022-10-01T06:26:28.343Z,100217.77
2022-10-01T06:29:03.628Z,100218.08
2022-10-01T06:31:35.963Z,100215.30
2022-10-01T06:34:08.553Z,100213.83
2022-10-01T06:36:40.514Z,100215.67
2022-10-01T06:39:12.570Z,100214.09
2022-10-01T06:41:44.650Z,100211.98
2022-10-01T06:44:20.702Z,100213.05
2022-10-01T06:46:54.190Z,100208.92
2022-10-01T06:49:26.837Z,100205.83
2022-10-01T06:52:17.167Z,100195.30
2022-10-01T06:54:49.830Z,100192.66
2022-10-01T06:57:22.176Z,100188.27
2022-10-01T06:59:54.324Z,100189.52
2022-10-01T07:02:30.222Z,100183.27
2022-10-01T07:05:02.488Z,100182.55
2022-10-01T07:07:35.587Z,100182.52
2022-10-01T07:10:09.990Z,100181.38
2022-10-01T07:12:42.233Z,100176.77
2022-10-01T07:15:14.770Z,100174.75
2022-10-01T07:17:51.506Z,100170.60
2022-10-01T07:20:23.902Z,100170.91
2022-10-01T07:23:00.743Z,100173.34
2022-10-01T07:25:33.223Z,100171.31
2022-10-01T07:28:07.806Z,100168.30
2022-10-01T07:30:59.426Z,100153.03
2022-10-01T07:33:32.000Z,100164.17
2022-10-01T07:36:07.626Z,100167.07
2022-10-01T07:38:39.527Z,100157.08
2022-10-01T07:41:12.194Z,100151.61
2022-10-01T07:43:47.176Z,100148.86
2022-10-01T07:46:19.318Z,100149.05
2022-10-01T07:48:52.288Z,100148.11
2022-10-01T07:51:27.335Z,100116.53
2022-10-01T07:53:59.405Z,100142.98
2022-10-01T07:56:31.486Z,100143.00
2022-10-01T07:59:03.910Z,100139.04
2022-10-01T08:01:36.613Z,100133.22
2022-10-01T08:04:22.875Z,100125.92
2022-10-01T08:06:57.234Z,100125.58
2022-10-01T08:09:29.630Z,100124.40
2022-10-01T08:12:02.529Z,100120.02
2022-10-01T08:14:35.485Z,100118.09
2022-10-01T08:17:07.842Z,100115.07
2022-10-01T08:19:40.260Z,100102.30
2022-10-01T08:22:12.404Z,100095.51
2022-10-01T08:24:44.331Z,100092.94
2022-10-01T08:27:17.332Z,100092.08
2022-10-01T08:29:49.867Z,100087.36
2022-10-01T08:32:23.383Z,100082.41
2022-10-01T08:34:57.594Z,100076.49
2022-10-01T08:37:30.448Z,100063.55
2022-10-01T08:40:03.016Z,100078.23
2022-10-01T08:42:50.123Z,100077.77
2022-10-01T08:45:28.113Z,100075.91
2022-10-01T08:48:06.882Z,100075.67
2022-10-01T08:50:52.945Z,100075.61
2022-10-01T08:53:35.151Z,100073.45
2022-10-01T08:56:16.338Z,100072.55
2022-10-01T08:58:54.619Z,100068.23
2022-10-01T09:01:28.470Z,100059.46
2022-10-01T09:04:01.742Z,100057.44
2022-10-01T09:06:33.772Z,100056.08
2022-10-01T09:09:34.154Z,100050.95
2022-10-01T09:12:20.999Z,100029.69
2022-10-01T09:15:17.917Z,100039.70
2022-10-01T09:17:59.543Z,100035.42
2022-10-01T09:20:37.501Z,100006.02
2022-10-01T09:23:20.100Z,100026.95
2022-10-01T09:25:53.358Z,100025.44
2022-10-01T09:28:29.879Z,100021.63
2022-10-01T09:31:13.565Z,100021.70
2022-10-01T09:33:54.226Z,100014.27
2022-10-01T09:36:34.377Z,100010.83
2022-10-01T09:39:14.872Z,100008.78
2022-10-01T09:41:48.456Z,100013.22
2022-10-01T09:44:27.763Z,100010.04
2022-10-01T09:46:59.970Z,100005.77
2022-10-01T09:49:36.541Z,100009.06
2022-10-01T09:52:15.751Z,100003.70
2022-10-01T09:54:53.600Z,100002.04
2022-10-01T09:57:31.609Z,99999.33
2022-10-01T10:00:10.142Z,99998.94
2022-10-01T10:02:49.282Z,99995.34
2022-10-01T10:05:24.115Z,99985.88
2022-10-01T10:07:59.351Z,99987.02
2022-10-01T10:10:35.628Z,99982.66
2022-10-01T10:13:24.416Z,99975.89
2022-10-01T10:15:58.775Z,99973.41
2022-10-01T10:18:35.588Z,99970.67
2022-10-01T10:21:14.668Z,99965.77
2022-10-01T10:23:54.852Z,99968.34
2022-10-01T10:30:54.780Z,99957.77
2022-10-01T10:33:27.725Z,99949.79
2022-10-01T10:36:03.800Z,99944.87
2022-10-01T10:38:38.512Z,99940.67
2022-10-01T10:41:19.687Z,99936.67
2022-10-01T10:43:52.114Z,99936.73
2022-10-01T10:46:29.789Z,99932.88
2022-10-01T10:49:07.388Z,99927.31
2022-10-01T10:51:54.079Z,99934.98
2022-10-01T10:54:32.885Z,99927.08
2022-10-01T10:57:27.926Z,99925.88
2022-10-01T11:00:02.065Z,99914.65
2022-10-01T11:02:35.516Z,99917.34
2022-10-01T11:05:20.765Z,99911.25
2022-10-01T11:07:57.876Z,99908.30
2022-10-01T11:10:43.497Z,99903.33
2022-10-01T11:13:49.760Z,99899.58
2022-10-01T11:17:05.990Z,99895.13
2022-10-01T11:19:58.678Z,99886.27
2022-10-01T11:22:43.209Z,99884.94
2022-10-01T11:25:27.947Z,99874.11
2022-10-01T11:28:13.371Z,99870.75
2022-10-01T11:30:54.982Z,99867.59
2022-10-01T11:33:40.904Z,99850.96
2022-10-01T11:39:39.082Z,99859.17
2022-10-01T11:42:59.916Z,99856.98
2022-10-01T11:46:03.195Z,99848.50
2022-10-01T11:54:05.334Z,99830.92
2022-10-01T11:57:18.879Z,99813.29
2022-10-01T12:00:27.330Z,99823.94
2022-10-01T12:03:38.297Z,99821.94
2022-10-01T12:06:26.220Z,99819.39
2022-10-01T12:09:10.670Z,99820.46
2022-10-01T12:11:52.927Z,99812.95
2022-10-01T12:14:48.652Z,99812.84
2022-10-01T12:17:34.908Z,99810.61
2022-10-01T12:20:21.852Z,99809.63
2022-10-01T12:22:57.990Z,99802.08
2022-10-01T12:25:40.325Z,99794.94
2022-10-01T12:28:17.621Z,99791.02
2022-10-01T12:30:58.285Z,99786.55
2022-10-01T12:34:00.350Z,99783.52
2022-10-01T12:36:47.669Z,99778.05
2022-10-01T12:39:37.639Z,99777.54
2022-10-01T12:42:31.840Z,99774.70
2022-10-01T12:45:20.458Z,99773.08
2022-10-01T12:48:01.942Z,99773.67
2022-10-01T12:50:45.559Z,99772.71
2022-10-01T12:53:40.336Z,99767.00
2022-10-01T12:56:27.695Z,99758.27
2022-10-01T12:59:15.447Z,99754.20
2022-10-01T13:02:00.130Z,99752.71
2022-10-01T13:04:50.743Z,99743.55
2022-10-01T13:07:42.759Z,99749.58
2022-10-01T13:10:26.089Z,99744.20
2022-10-01T13:13:08.364Z,99738.30
2022-10-01T13:15:44.655Z,99735.95
2022-10-01T13:18:27.138Z,99733.42
2022-10-01T13:21:07.128Z,99731.54
2022-10-01T13:23:47.273Z,99725.00
2022-10-01T13:26:26.948Z,99721.58
2022-10-01T13:29:08.408Z,99717.88
2022-10-01T13:31:55.181Z,99714.77
2022-10-01T13:34:35.800Z,99713.01
2022-10-01T13:37:16.900Z,99712.65
2022-10-01T13:39:49.980Z,99712.13
2022-10-01T13:42:27.551Z,99704.66
2022-10-01T13:45:02.397Z,99684.16
2022-10-01T13:47:40.996Z,99702.72
2022-10-01T13:50:24.880Z,99702.36
2022-10-01T13:53:08.801Z,99696.17
2022-10-01T13:55:44.979Z,99698.84
2022-10-01T13:58:33.583Z,99698.20
2022-10-01T14:01:13.867Z,99701.70
2022-10-01T14:03:53.988Z,99708.48
2022-10-01T14:06:30.926Z,99713.77
2022-10-01T14:09:14.428Z,99709.56
2022-10-01T14:12:07.072Z,99712.34
2022-10-01T14:14:59.210Z,99706.44
2022-10-01T14:17:35.051Z,99706.80
2022-10-01T14:20:09.171Z,99729.98
2022-10-01T14:23:04.030Z,99742.64
2022-10-01T14:25:43.657Z,99745.16
2022-10-01T14:28:29.140Z,99740.96
2022-10-01T14:31:09.196Z,99752.15
2022-10-01T14:33:59.687Z,99749.29
2022-10-01T14:36:35.274Z,99748.73
2022-10-01T14:39:19.365Z,99745.67
2022-10-01T14:41:53.811Z,99744.46
2022-10-01T14:44:28.960Z,99743.86
2022-10-01T14:51:26.448Z,99732.68
2022-10-01T14:54:01.388Z,99733.69
2022-10-01T14:54:16.880Z,99735.05
2022-10-01T14:56:35.869Z,99730.35
2022-10-01T14:59:15.038Z,99728.80
2022-10-01T15:02:01.478Z,99726.42
2022-10-01T15:05:40.471Z,99724.86
2022-10-01T15:17:37.958Z,99722.19
2022-10-01T15:20:14.247Z,99720.34
2022-10-01T15:22:49.343Z,99715.45
2022-10-01T15:25:25.995Z,99708.15
2022-10-01T15:27:59.434Z,99706.12
2022-10-01T15:30:31.954Z,99699.99
2022-10-01T15:33:04.682Z,99698.05
2022-10-01T15:35:36.868Z,99700.33
2022-10-01T15:38:24.709Z,99701.64
2022-10-01T15:41:31.645Z,99695.54
2022-10-01T15:44:07.700Z,99682.08
2022-10-01T15:55:41.496Z,99685.67
2022-10-01T15:56:05.671Z,99693.06
2022-10-01T15:58:18.248Z,99686.85
2022-10-01T16:04:45.461Z,99680.30
2022-10-01T16:07:39.676Z,99679.25
2022-10-01T16:10:38.953Z,99673.83
2022-10-01T16:13:41.717Z,99677.31
2022-10-01T17:08:11.329Z,99684.82
2022-10-01T17:24:00.585Z,99691.52
2022-10-01T17:30:44.060Z,99674.37
2022-10-01T17:55:46.917Z,99687.73
2022-10-01T17:58:16.923Z,99687.70
2022-10-01T18:00:45.522Z,99693.00
2022-10-01T18:03:17.568Z,99693.95
2022-10-01T18:05:46.788Z,99694.36
2022-10-01T18:08:15.485Z,99697.38
2022-10-01T18:10:44.212Z,99692.23
2022-10-01T18:13:15.242Z,99693.85
2022-10-01T18:15:53.277Z,99696.16
2022-10-01T18:22:13.919Z,99699.02
2022-10-01T18:25:07.327Z,99701.09
2022-10-01T18:29:03.315Z,99698.09
2022-10-01T18:40:41.424Z,99710.80
2022-10-01T18:55:21.381Z,99706.06
2022-10-01T18:58:09.188Z,99701.86
2022-10-01T19:40:06.975Z,99716.09
2022-10-01T19:42:42.105Z,99716.80
2022-10-01T19:45:20.516Z,99714.39
2022-10-01T19:48:03.991Z,99715.88
2022-10-01T19:50:38.056Z,99719.66
2022-10-01T19:53:20.848Z,99727.96
2022-10-01T19:56:04.731Z,99729.15
2022-10-01T19:59:24.428Z,99730.58
2022-10-01T20:02:22.664Z,99729.83
2022-10-01T20:05:04.584Z,99727.67
2022-10-01T20:08:39.397Z,99731.16
2022-10-01T20:21:43.851Z,99734.43
2022-10-01T20:25:14.500Z,99737.39
2022-10-01T20:32:29.987Z,99746.02
2022-10-01T20:35:26.655Z,99753.60
2022-10-01T21:00:57.212Z,99756.27
2022-10-01T21:33:14.167Z,99768.20
